Time;durP1;ratioP1;P1;durP2;ratioP2;P2;SDS_P1;SDS_P2;PMS_P1;PMS_P2;Temp;Humidity;BMP_temperature;BMP_pressure;BME280_temperature;BME280_humidity;BME280_pressure;Samples;Min_cycle;Max_cycle;Signal;HPM_P1;HPM_P2
2022/06/05 08:26:07;;;;;;;;;;;12.80;99.90;;;;;;5072478;28;20364;-55
2022/06/05 08:28:34;;;;;;;61.03;28.25;;;12.80;99.90;;;;;;5073723;28;20006;-55
2022/06/05 08:31:01;;;;;;;46.40;27.33;;;12.90;99.90;;;;;;5083799;28;20045;-56
2022/06/05 08:33:28;;;;;;;55.78;28.58;;;12.90;99.90;;;;;;5057764;28;20040;-57
2022/06/05 08:35:55;;;;;;;44.80;25.27;;;12.90;99.90;;;;;;5066254;28;20454;-57
2022/06/05 08:41:30;;;;;;;49.85;25.17;;;13.10;99.90;;;;;;5051483;28;20053;-59
2022/06/05 08:43:55;;;;;;;43.17;23.92;;;13.00;99.90;;;;;;5067520;28;20411;-51
2022/06/05 08:46:23;;;;;;;45.58;23.85;;;13.00;99.90;;;;;;5061203;28;20037;-55
2022/06/05 08:48:50;;;;;;;40.75;23.05;;;13.10;99.90;;;;;;5050499;28;20056;-55
2022/06/05 08:51:16;;;;;;;43.05;23.73;;;13.10;99.90;;;;;;5052868;28;20124;-53
2022/06/05 08:53:43;;;;;;;39.70;21.40;;;13.20;99.90;;;;;;5064513;28;20501;-56
2022/06/05 08:56:10;;;;;;;32.60;21.67;;;13.10;99.90;;;;;;5057108;28;20066;-55
2022/06/05 08:58:37;;;;;;;39.88;20.70;;;13.10;99.90;;;;;;5065696;28;20048;-56
2022/06/05 09:01:04;;;;;;;39.42;22.55;;;13.10;99.90;;;;;;5060914;28;20048;-55
2022/06/05 09:03:31;;;;;;;43.42;22.40;;;13.10;99.90;;;;;;5057565;28;20033;-57
2022/06/05 09:05:58;;;;;;;39.65;23.58;;;13.00;99.90;;;;;;5067378;28;20037;-54
2022/06/05 09:08:30;;;;;;;35.50;21.05;;;13.10;99.90;;;;;;5058457;28;20079;-56
2022/06/05 09:10:57;;;;;;;33.67;21.77;;;13.20;99.90;;;;;;5051282;28;20048;-54
2022/06/05 09:13:24;;;;;;;36.72;23.10;;;13.20;99.90;;;;;;5051749;28;20037;-55
2022/06/05 09:15:51;;;;;;;35.13;22.27;;;13.20;99.90;;;;;;5055800;28;20480;-56
2022/06/05 09:18:18;;;;;;;30.80;20.70;;;13.20;99.90;;;;;;5068801;28;20049;-57
2022/06/05 09:20:44;;;;;;;37.50;21.33;;;13.20;99.90;;;;;;5051869;28;20049;-55
2022/06/05 09:23:11;;;;;;;36.05;21.05;;;13.20;99.90;;;;;;5049916;28;20053;-53
2022/06/05 09:25:40;;;;;;;34.20;21.35;;;13.20;99.90;;;;;;5057633;28;20045;-53
2022/06/05 09:28:07;;;;;;;29.27;21.17;;;13.30;99.90;;;;;;5051750;28;20489;-58
2022/06/05 09:30:34;;;;;;;30.67;20.55;;;13.30;99.90;;;;;;5051335;28;20048;-51
2022/06/05 09:33:00;;;;;;;37.58;21.58;;;13.30;99.90;;;;;;5049684;28;20045;-52
2022/06/05 09:35:27;;;;;;;30.80;20.42;;;13.30;99.90;;;;;;5049175;28;20393;-55
2022/06/05 09:37:54;;;;;;;28.17;20.38;;;13.30;99.90;;;;;;5055219;28;20044;-60
2022/06/05 09:40:21;;;;;;;33.03;20.35;;;13.30;99.90;;;;;;5055557;28;20041;-54
2022/06/05 09:42:47;;;;;;;30.98;20.77;;;13.40;99.90;;;;;;5054596;28;20055;-56
2022/06/05 09:45:14;;;;;;;31.15;21.10;;;13.50;99.90;;;;;;5055432;28;20068;-57
2022/06/05 09:47:41;;;;;;;31.95;19.75;;;13.60;99.90;;;;;;5054489;28;20033;-57
2022/06/05 09:50:07;;;;;;;32.58;20.67;;;13.50;99.90;;;;;;5055525;28;20546;-60
2022/06/05 09:52:34;;;;;;;30.42;20.48;;;13.60;99.90;;;;;;5055012;28;20045;-55
2022/06/05 09:55:01;;;;;;;27.73;18.15;;;13.50;99.90;;;;;;5055571;28;20037;-54
2022/06/05 10:00:15;;;;;;;27.45;17.15;;;13.60;99.90;;;;;;5055060;28;20052;-56
2022/06/05 10:02:42;;;;;;;23.30;16.50;;;13.70;99.90;;;;;;5052861;28;20061;-52
2022/06/05 10:05:09;;;;;;;22.98;16.17;;;13.80;99.90;;;;;;5055175;28;20041;-51
2022/06/05 10:07:40;;;;;;;19.75;15.45;;;13.90;99.90;;;;;;5049174;28;20227;-53
2022/06/05 10:10:06;;;;;;;22.92;15.38;;;14.00;99.90;;;;;;5036045;28;20033;-56
2022/06/05 10:12:33;;;;;;;25.63;17.02;;;14.00;99.90;;;;;;5039848;28;20035;-56
2022/06/05 10:15:00;;;;;;;25.35;16.63;;;14.00;99.90;;;;;;5054621;28;20053;-52
2022/06/05 10:17:27;;;;;;;23.75;16.67;;;14.00;99.90;;;;;;5053785;28;20480;-54
2022/06/05 10:19:53;;;;;;;19.45;15.80;;;14.00;99.90;;;;;;5054629;28;20087;-53
2022/06/05 10:22:20;;;;;;;22.33;15.60;;;14.00;99.90;;;;;;5054708;28;20410;-51
2022/06/05 10:24:47;;;;;;;24.67;15.93;;;14.00;99.90;;;;;;5053736;28;20048;-54
2022/06/05 10:27:14;;;;;;;22.60;15.93;;;14.10;99.90;;;;;;5054387;28;20041;-52
2022/06/05 10:29:42;;;;;;;24.20;16.42;;;14.10;99.90;;;;;;5053929;28;20037;-53
2022/06/05 10:32:09;;;;;;;22.38;16.45;;;14.10;99.90;;;;;;5054618;28;20502;-54
2022/06/05 10:34:35;;;;;;;21.88;16.00;;;14.20;99.90;;;;;;5053554;28;20049;-52
2022/06/05 10:37:02;;;;;;;23.25;16.90;;;14.30;99.90;;;;;;5054324;28;20048;-53
2022/06/05 10:39:29;;;;;;;20.95;16.05;;;14.30;99.90;;;;;;5053359;28;20045;-50
2022/06/05 10:41:56;;;;;;;22.67;15.40;;;14.30;99.90;;;;;;5054357;28;20063;-52
2022/06/05 10:44:22;;;;;;;24.38;16.77;;;14.30;99.90;;;;;;5048296;28;20514;-56
2022/06/05 10:46:49;;;;;;;19.88;15.98;;;14.40;99.90;;;;;;5054344;28;20037;-52
2022/06/05 10:49:17;;;;;;;21.98;16.33;;;14.30;99.90;;;;;;5052121;28;20476;-51
2022/06/05 10:51:44;;;;;;;27.70;17.58;;;14.40;99.90;;;;;;5044742;28;20052;-52
2022/06/05 10:54:11;;;;;;;25.00;18.33;;;14.40;99.90;;;;;;5038759;28;20088;-54
2022/06/05 10:56:38;;;;;;;24.42;18.63;;;14.50;99.90;;;;;;5035309;28;20038;-57
2022/06/05 10:59:05;;;;;;;25.75;17.85;;;14.50;99.90;;;;;;5035246;28;20037;-56
2022/06/05 11:01:32;;;;;;;20.60;16.55;;;14.50;99.90;;;;;;5054877;28;20419;-58
2022/06/05 11:03:59;;;;;;;23.85;16.40;;;14.60;99.90;;;;;;5051325;28;20045;-54
2022/06/05 11:06:27;;;;;;;25.70;17.95;;;14.60;99.90;;;;;;5041311;28;20041;-59
2022/06/05 11:08:54;;;;;;;27.55;18.05;;;14.50;99.90;;;;;;5038893;28;20041;-55
2022/06/05 11:14:06;;;;;;;26.95;18.85;;;14.50;99.90;;;;;;5053369;28;20044;-55
2022/06/05 11:16:53;;;;;;;24.42;18.30;;;14.60;99.90;;;;;;5052716;28;20663;-52
2022/06/05 11:19:20;;;;;;;26.17;19.15;;;14.60;99.90;;;;;;5053192;28;20076;-51
2022/06/05 11:21:47;;;;;;;26.40;18.17;;;14.50;99.90;;;;;;5052650;28;20049;-55
2022/06/05 11:24:13;;;;;;;26.10;18.70;;;14.60;99.90;;;;;;5053317;28;20446;-56
2022/06/05 11:26:40;;;;;;;28.95;18.83;;;14.60;99.90;;;;;;5052731;28;20467;-50
2022/06/05 11:29:07;;;;;;;27.65;19.42;;;14.60;99.90;;;;;;5053473;28;20041;-55
2022/06/05 11:31:34;;;;;;;26.63;19.83;;;14.50;99.90;;;;;;5053383;28;20037;-58
2022/06/05 11:34:01;;;;;;;26.90;20.08;;;14.50;99.90;;;;;;5051764;28;20120;-58
2022/06/05 11:36:27;;;;;;;28.50;19.90;;;14.50;99.90;;;;;;5053190;28;20056;-54
2022/06/05 11:38:54;;;;;;;27.00;20.33;;;14.60;99.90;;;;;;5051189;28;20040;-52
2022/06/05 11:41:22;;;;;;;29.48;20.75;;;14.50;99.90;;;;;;5033859;28;20059;-51
2022/06/05 11:43:49;;;;;;;27.55;21.02;;;14.60;99.90;;;;;;5042458;28;20049;-57
2022/06/05 11:46:32;;;;;;;31.02;21.48;;;14.60;99.90;;;;;;5033680;28;20044;-54
2022/06/05 11:48:59;;;;;;;27.65;21.25;;;14.60;99.90;;;;;;5032424;28;20045;-58
2022/06/05 11:51:26;;;;;;;29.17;21.52;;;14.60;99.90;;;;;;5033652;28;20052;-56
2022/06/05 11:53:53;;;;;;;27.08;19.90;;;14.60;99.90;;;;;;5033586;28;20538;-53
2022/06/05 11:56:19;;;;;;;28.48;21.70;;;14.50;99.90;;;;;;5041141;28;20049;-58
2022/06/05 11:58:46;;;;;;;28.30;21.42;;;14.60;99.90;;;;;;5041811;28;20036;-56
2022/06/05 12:01:13;;;;;;;26.13;20.92;;;14.70;99.90;;;;;;5040881;28;20038;-51
2022/06/05 12:03:40;;;;;;;30.75;21.33;;;14.70;99.90;;;;;;5042324;28;20040;-54
2022/06/05 12:06:07;;;;;;;28.60;21.73;;;14.80;99.90;;;;;;5041639;28;20041;-51
2022/06/05 12:08:36;;;;;;;27.95;20.95;;;14.90;99.90;;;;;;5041572;28;20092;-54
2022/06/05 12:11:03;;;;;;;27.77;20.70;;;14.80;99.90;;;;;;5038785;28;20072;-56
2022/06/05 12:13:30;;;;;;;29.80;21.75;;;14.90;99.90;;;;;;5033668;28;20068;-51
2022/06/05 12:15:57;;;;;;;28.67;21.33;;;15.00;99.90;;;;;;5033491;28;20041;-53
2022/06/05 12:18:24;;;;;;;33.05;23.20;;;15.10;99.90;;;;;;5033621;28;20489;-56
2022/06/05 12:20:50;;;;;;;27.38;20.92;;;15.10;99.90;;;;;;5033530;28;20041;-54
2022/06/05 12:23:17;;;;;;;28.10;20.33;;;15.10;99.90;;;;;;5033499;28;20045;-54
2022/06/05 12:25:44;;;;;;;29.70;20.98;;;15.20;99.90;;;;;;5045881;28;20053;-56
2022/06/05 12:28:11;;;;;;;29.17;20.25;;;15.10;99.90;;;;;;5037213;28;20040;-49
2022/06/05 12:30:37;;;;;;;25.13;20.20;;;15.20;99.90;;;;;;5052650;28;20503;-54
2022/06/05 12:33:05;;;;;;;30.42;22.27;;;15.30;99.90;;;;;;5033057;28;20045;-55
2022/06/05 12:35:32;;;;;;;22.65;20.25;;;15.50;99.90;;;;;;5033243;28;20059;-55
2022/06/05 12:37:59;;;;;;;25.48;20.40;;;15.50;99.90;;;;;;5033456;28;20045;-53
2022/06/05 12:40:25;;;;;;;23.67;20.23;;;15.50;99.90;;;;;;5052218;28;20116;-55
2022/06/05 12:42:52;;;;;;;24.77;20.23;;;15.60;99.90;;;;;;5052365;28;20086;-59
2022/06/05 12:45:20;;;;;;;24.50;19.77;;;15.70;99.90;;;;;;5050440;28;20044;-55
2022/06/05 12:47:47;;;;;;;24.63;20.85;;;15.80;99.90;;;;;;5033479;28;20500;-51
2022/06/05 12:50:20;;;;;;;21.80;19.50;;;15.80;99.90;;;;;;5046350;28;20041;-55
2022/06/05 12:52:46;;;;;;;22.73;19.63;;;15.70;99.90;;;;;;5032798;28;20053;-54
2022/06/05 12:55:13;;;;;;;24.13;20.23;;;15.80;99.90;;;;;;5051801;28;20408;-57
2022/06/05 12:57:40;;;;;;;28.13;19.48;;;15.90;99.90;;;;;;5052555;28;20102;-51
2022/06/05 13:00:07;;;;;;;27.05;21.02;;;16.00;99.90;;;;;;5052727;28;20476;-53
2022/06/05 13:02:37;;;;;;;26.77;20.58;;;16.10;99.90;;;;;;5052569;28;20041;-53
2022/06/05 13:05:04;;;;;;;25.35;21.67;;;16.10;99.90;;;;;;5039462;28;20037;-55
2022/06/05 13:07:31;;;;;;;26.65;22.58;;;16.10;99.90;;;;;;5033093;28;20041;-54
2022/06/05 13:09:57;;;;;;;26.98;23.10;;;15.90;99.90;;;;;;5044627;28;20380;-47
2022/06/05 13:12:24;;;;;;;25.35;21.77;;;15.80;99.90;;;;;;5055153;28;20037;-54
2022/06/05 13:14:51;;;;;;;23.88;21.33;;;15.80;99.90;;;;;;5056262;28;20037;-51
2022/06/05 13:17:18;;;;;;;28.65;22.05;;;15.60;99.90;;;;;;5055073;28;20045;-53
2022/06/05 13:19:44;;;;;;;23.38;20.50;;;15.70;99.90;;;;;;5055987;28;20103;-55
2022/06/05 13:22:11;;;;;;;24.58;20.20;;;15.80;99.90;;;;;;5055970;28;20037;-54
2022/06/05 13:24:38;;;;;;;26.77;20.75;;;15.90;99.90;;;;;;5055444;28;20048;-57
2022/06/05 13:27:05;;;;;;;24.88;20.60;;;16.00;99.90;;;;;;5056045;28;20052;-52
2022/06/05 13:29:32;;;;;;;24.23;20.30;;;15.80;99.90;;;;;;5054728;28;20115;-52
2022/06/05 13:31:58;;;;;;;22.65;19.88;;;15.60;99.90;;;;;;5055667;28;20504;-54
2022/06/05 13:34:45;;;;;;;27.00;20.80;;;15.60;99.90;;;;;;5053439;28;20044;-55
2022/06/05 13:37:12;;;;;;;25.08;22.13;;;15.70;99.90;;;;;;5055610;28;20040;-52
2022/06/05 13:39:39;;;;;;;26.48;22.48;;;15.70;99.90;;;;;;5054729;28;20033;-54
2022/06/05 13:42:06;;;;;;;26.83;22.65;;;15.70;99.90;;;;;;5055588;28;20036;-54
2022/06/05 13:44:33;;;;;;;27.88;22.25;;;15.70;99.90;;;;;;5054448;28;20044;-55
2022/06/05 13:47:00;;;;;;;32.90;24.55;;;15.60;99.90;;;;;;5055390;28;20037;-55
2022/06/05 13:49:27;;;;;;;26.70;23.10;;;15.70;99.90;;;;;;5055248;28;20045;-53
2022/06/05 13:51:54;;;;;;;31.10;22.98;;;15.60;99.90;;;;;;5055487;28;20124;-52
2022/06/05 13:54:21;;;;;;;28.25;23.42;;;15.70;99.90;;;;;;5036148;28;20068;-52
2022/06/05 13:56:48;;;;;;;27.88;24.02;;;15.70;99.90;;;;;;5049509;28;20033;-53
2022/06/05 13:59:14;;;;;;;29.17;23.77;;;15.50;99.90;;;;;;5035819;28;20069;-54
2022/06/05 14:01:41;;;;;;;28.98;23.48;;;15.60;99.90;;;;;;5046160;28;20065;-55
2022/06/05 14:04:08;;;;;;;26.38;23.20;;;15.60;99.90;;;;;;5035897;28;20049;-54
2022/06/05 14:06:35;;;;;;;27.92;22.90;;;15.60;99.90;;;;;;5035985;28;20053;-55
2022/06/05 14:09:02;;;;;;;26.13;23.30;;;15.60;99.90;;;;;;5053512;28;20445;-52
2022/06/05 14:11:28;;;;;;;28.80;24.20;;;15.60;99.90;;;;;;5055032;28;20110;-51
2022/06/05 14:13:55;;;;;;;29.35;23.30;;;15.60;99.90;;;;;;5054949;28;20045;-55
2022/06/05 14:16:28;;;;;;;27.73;23.80;;;15.70;99.90;;;;;;5054221;28;20044;-51
2022/06/05 14:18:54;;;;;;;27.33;23.05;;;15.70;99.90;;;;;;5035580;28;20041;-52
2022/06/05 14:21:21;;;;;;;28.83;24.25;;;15.80;99.90;;;;;;5035513;28;20124;-51
2022/06/05 14:24:09;;;;;;;24.63;21.98;;;15.80;99.90;;;;;;5034328;28;20044;-55
2022/06/05 14:26:35;;;;;;;28.35;23.60;;;15.80;99.90;;;;;;5052041;28;20048;-54
2022/06/05 14:29:03;;;;;;;30.83;23.85;;;15.80;99.90;;;;;;5054531;28;20408;-53
2022/06/05 14:31:29;;;;;;;29.60;25.08;;;15.80;99.90;;;;;;5040201;28;20095;-51
2022/06/05 14:33:57;;;;;;;28.95;23.40;;;15.80;99.90;;;;;;5035323;28;20046;-55
2022/06/05 14:36:23;;;;;;;28.98;22.70;;;15.80;99.90;;;;;;5035172;28;20041;-53
2022/06/05 14:38:50;;;;;;;27.80;22.80;;;15.70;99.90;;;;;;5048975;28;20044;-51
2022/06/05 14:41:17;;;;;;;26.95;22.75;;;15.80;99.90;;;;;;5054556;28;20110;-53
2022/06/05 14:43:43;;;;;;;26.30;22.05;;;15.80;99.90;;;;;;5053508;28;20479;-55
2022/06/05 14:46:11;;;;;;;26.58;23.08;;;15.70;99.90;;;;;;5054291;28;20037;-57
2022/06/05 14:48:38;;;;;;;25.17;21.63;;;15.80;99.90;;;;;;5054285;28;20036;-50
2022/06/05 14:51:05;;;;;;;26.00;21.90;;;15.90;99.90;;;;;;5053346;28;20041;-53
2022/06/05 14:53:36;;;;;;;26.85;21.35;;;15.90;99.90;;;;;;5053888;28;20055;-55
2022/06/05 14:58:48;;;;;;;26.33;21.35;;;15.90;99.90;;;;;;5034927;28;20048;-54
2022/06/05 15:01:15;;;;;;;25.75;20.73;;;15.80;99.90;;;;;;5034667;28;20072;-55
2022/06/05 15:03:42;;;;;;;24.67;20.52;;;15.80;99.90;;;;;;5034758;28;20037;-54
2022/06/05 15:06:09;;;;;;;26.08;21.38;;;15.80;99.90;;;;;;5042866;28;20427;-54
2022/06/05 15:08:36;;;;;;;25.05;19.77;;;15.70;99.90;;;;;;5052509;28;20500;-53
2022/06/05 15:11:03;;;;;;;25.83;21.02;;;15.70;99.90;;;;;;5052890;28;20044;-56
2022/06/05 15:13:30;;;;;;;25.13;19.35;;;15.80;99.90;;;;;;5053757;28;20115;-53
2022/06/05 15:15:57;;;;;;;23.90;20.73;;;15.90;99.90;;;;;;5052756;28;20488;-55
2022/06/05 15:18:24;;;;;;;24.70;20.20;;;15.90;99.90;;;;;;5053573;28;20056;-51
2022/06/05 15:21:10;;;;;;;25.10;19.45;;;15.90;99.90;;;;;;5051508;28;20037;-48
2022/06/05 15:23:38;;;;;;;22.23;19.85;;;16.10;99.90;;;;;;5053790;28;20447;-52
2022/06/05 15:26:06;;;;;;;28.30;19.98;;;16.10;99.90;;;;;;5051431;28;20057;-52
2022/06/05 15:28:33;;;;;;;25.08;18.90;;;16.10;99.90;;;;;;5039371;28;20412;-53
2022/06/05 15:31:00;;;;;;;26.60;20.05;;;16.10;99.90;;;;;;5034134;28;20046;-52
2022/06/05 15:33:27;;;;;;;25.70;20.38;;;16.20;99.90;;;;;;5048784;28;20041;-54
2022/06/05 15:35:53;;;;;;;23.00;19.30;;;16.20;99.90;;;;;;5035478;28;20041;-48
2022/06/05 15:38:20;;;;;;;23.13;18.88;;;16.20;99.90;;;;;;5035961;28;20096;-53
2022/06/05 15:40:47;;;;;;;25.45;19.13;;;16.20;99.90;;;;;;5053191;28;20041;-55
2022/06/05 15:43:13;;;;;;;25.88;19.17;;;16.20;99.90;;;;;;5053166;28;20094;-56
2022/06/05 15:45:40;;;;;;;23.42;19.10;;;16.10;99.90;;;;;;5052341;28;20045;-51
2022/06/05 15:48:07;;;;;;;26.02;19.80;;;16.10;99.90;;;;;;5053061;28;20073;-56
2022/06/05 15:50:34;;;;;;;25.35;19.08;;;16.10;99.90;;;;;;5051838;28;20056;-55
2022/06/05 15:53:01;;;;;;;22.17;18.13;;;16.10;99.90;;;;;;5052717;28;20037;-53
2022/06/05 15:55:27;;;;;;;24.33;19.20;;;16.10;99.90;;;;;;5053025;28;20052;-53
2022/06/05 16:00:39;;;;;;;21.70;18.15;;;16.00;99.90;;;;;;5040883;28;20045;-51
2022/06/05 16:03:06;;;;;;;22.35;18.60;;;16.00;99.90;;;;;;5051041;28;20052;-50
2022/06/05 16:05:33;;;;;;;25.42;19.40;;;15.90;99.90;;;;;;5053058;28;20052;-54
2022/06/05 16:07:59;;;;;;;26.63;18.55;;;15.80;99.90;;;;;;5047700;28;20103;-50
2022/06/05 16:10:26;;;;;;;24.00;18.25;;;15.80;99.90;;;;;;5052905;28;20133;-49
2022/06/05 16:12:53;;;;;;;23.70;18.35;;;15.90;99.90;;;;;;5051717;28;20040;-52
2022/06/05 16:15:23;;;;;;;23.80;18.20;;;15.90;99.90;;;;;;5052878;28;20047;-60
2022/06/05 16:17:50;;;;;;;22.13;17.90;;;16.00;99.90;;;;;;5033233;28;20088;-56
2022/06/05 16:20:17;;;;;;;23.02;17.77;;;16.10;99.90;;;;;;5043059;28;20082;-57
2022/06/05 16:22:44;;;;;;;25.73;18.05;;;16.20;99.90;;;;;;5052470;28;20045;-48
2022/06/05 16:25:10;;;;;;;21.52;18.00;;;16.20;99.90;;;;;;5051746;28;20072;-57
2022/06/05 16:27:37;;;;;;;24.30;17.50;;;16.30;99.90;;;;;;5052803;28;20411;-52
2022/06/05 16:30:04;;;;;;;20.15;17.10;;;16.30;99.90;;;;;;5052484;28;20103;-55
2022/06/05 16:32:31;;;;;;;22.83;16.90;;;16.30;99.90;;;;;;5051658;28;20064;-52
2022/06/05 16:37:57;;;;;;;19.92;17.52;;;16.30;99.90;;;;;;5052514;28;20037;-51
2022/06/05 16:40:24;;;;;;;22.00;17.67;;;16.20;99.90;;;;;;5037746;28;20107;-56
2022/06/05 16:42:50;;;;;;;22.40;16.67;;;16.20;99.90;;;;;;5037921;28;20063;-51
2022/06/05 16:45:17;;;;;;;23.15;16.63;;;16.30;99.90;;;;;;5051223;28;20048;-56
2022/06/05 16:47:44;;;;;;;20.88;16.50;;;16.30;99.90;;;;;;5044578;28;20045;-54
2022/06/05 16:50:11;;;;;;;21.50;15.85;;;16.30;99.90;;;;;;5052708;28;20458;-54
2022/06/05 16:52:41;;;;;;;20.05;15.38;;;16.30;99.90;;;;;;5056412;28;20041;-52
2022/06/05 16:55:08;;;;;;;18.85;15.05;;;16.30;99.90;;;;;;5057800;28;20033;-52
2022/06/05 16:57:35;;;;;;;21.70;15.68;;;16.30;99.90;;;;;;5057231;28;20474;-52
2022/06/05 17:00:02;;;;;;;18.48;15.68;;;16.30;99.90;;;;;;5049901;28;20073;-54
2022/06/05 17:02:28;;;;;;;20.88;16.10;;;16.30;99.90;;;;;;5055876;28;20041;-53
2022/06/05 17:04:55;;;;;;;19.73;16.05;;;16.30;99.90;;;;;;5056127;28;20152;-54
2022/06/05 17:07:22;;;;;;;19.88;15.40;;;16.30;99.90;;;;;;5042694;28;20041;-53
2022/06/05 17:09:49;;;;;;;20.98;16.20;;;16.20;99.90;;;;;;5044704;28;20033;-53
2022/06/05 17:12:17;;;;;;;18.13;15.50;;;16.20;99.90;;;;;;5056144;28;20450;-56
2022/06/05 17:14:46;;;;;;;18.42;15.75;;;16.20;99.90;;;;;;5056026;28;20049;-56
2022/06/05 17:17:14;;;;;;;17.58;15.68;;;16.20;99.90;;;;;;5055012;28;20468;-54
2022/06/05 17:19:40;;;;;;;17.60;14.90;;;16.20;99.90;;;;;;5055895;28;20037;-54
2022/06/05 17:22:07;;;;;;;18.50;15.50;;;16.20;99.90;;;;;;5048774;28;20124;-54
2022/06/05 17:24:34;;;;;;;18.23;15.60;;;16.20;99.90;;;;;;5036569;28;20049;-52
2022/06/05 17:27:06;;;;;;;18.05;16.15;;;16.20;99.90;;;;;;5036524;28;20404;-59
2022/06/05 17:29:33;;;;;;;21.15;16.98;;;16.20;99.90;;;;;;5036691;28;20087;-57
2022/06/05 17:32:00;;;;;;;20.73;17.60;;;16.20;99.90;;;;;;5036533;28;20041;-55
2022/06/05 17:34:27;;;;;;;22.05;17.10;;;16.20;99.90;;;;;;5036441;28;20061;-55
2022/06/05 17:36:53;;;;;;;22.85;18.65;;;16.20;99.90;;;;;;5036375;28;20041;-53
2022/06/05 17:39:20;;;;;;;23.63;19.15;;;16.10;99.90;;;;;;5054293;28;20041;-52
2022/06/05 17:41:47;;;;;;;28.98;23.52;;;16.10;99.90;;;;;;5036541;28;20046;-56
2022/06/05 17:44:14;;;;;;;26.80;23.65;;;16.10;99.90;;;;;;5054620;28;20041;-53
2022/06/05 17:46:41;;;;;;;27.33;24.35;;;16.10;99.90;;;;;;5055394;28;20051;-55
2022/06/05 17:49:08;;;;;;;29.88;26.10;;;16.10;99.90;;;;;;5055328;28;20110;-57
2022/06/05 17:51:34;;;;;;;30.65;25.35;;;16.10;99.90;;;;;;5042130;28;20467;-51
2022/06/05 17:54:01;;;;;;;29.63;25.70;;;16.10;99.90;;;;;;5036108;28;20050;-55
2022/06/05 17:56:28;;;;;;;26.60;23.65;;;16.00;99.90;;;;;;5035663;28;20056;-54
2022/06/05 17:58:55;;;;;;;28.13;25.13;;;16.00;99.90;;;;;;5036043;28;20099;-50
2022/06/05 18:01:21;;;;;;;27.48;23.67;;;16.00;99.90;;;;;;5054138;28;20395;-55
2022/06/05 18:03:48;;;;;;;27.27;24.20;;;16.10;99.90;;;;;;5055060;28;20126;-54
2022/06/05 18:06:15;;;;;;;27.15;24.13;;;16.00;99.90;;;;;;5053193;28;20456;-54
2022/06/05 18:08:42;;;;;;;30.90;24.02;;;16.10;99.90;;;;;;5051043;28;20472;-55
2022/06/05 18:11:09;;;;;;;26.23;23.15;;;16.00;99.90;;;;;;5036087;28;20132;-55
2022/06/05 18:13:36;;;;;;;26.80;22.27;;;16.00;99.90;;;;;;5049297;28;20067;-52
2022/06/05 18:16:02;;;;;;;28.30;23.17;;;15.90;99.90;;;;;;5054877;28;20041;-55
2022/06/05 18:18:29;;;;;;;26.17;22.30;;;15.90;99.90;;;;;;5054022;28;20045;-50
2022/06/05 18:20:56;;;;;;;26.20;22.42;;;15.90;99.90;;;;;;5054899;28;20040;-53
2022/06/05 18:23:23;;;;;;;26.17;22.10;;;15.90;99.90;;;;;;5054744;28;20041;-49
2022/06/05 18:25:50;;;;;;;26.52;21.50;;;16.00;99.90;;;;;;5055320;28;20049;-52
2022/06/05 18:28:17;;;;;;;23.45;20.23;;;15.90;99.90;;;;;;5050882;28;20045;-53
2022/06/05 18:30:43;;;;;;;22.25;18.60;;;15.90;99.90;;;;;;5045155;28;20044;-50
2022/06/05 18:33:10;;;;;;;23.33;19.35;;;15.80;99.90;;;;;;5050529;28;20477;-55
2022/06/05 18:38:22;;;;;;;24.67;18.95;;;15.80;99.90;;;;;;5040991;28;20515;-53
2022/06/05 18:40:49;;;;;;;22.73;18.88;;;15.80;99.90;;;;;;5053279;28;20046;-55
2022/06/05 18:43:16;;;;;;;22.27;18.42;;;15.80;99.90;;;;;;5035488;28;20041;-57
2022/06/05 18:45:43;;;;;;;20.95;17.95;;;15.80;99.90;;;;;;5037859;28;20052;-55
2022/06/05 18:48:10;;;;;;;22.55;18.00;;;15.80;99.90;;;;;;5041157;28;20456;-54
2022/06/05 18:50:36;;;;;;;23.58;19.25;;;15.80;99.90;;;;;;5047900;28;20590;-57
2022/06/05 18:53:03;;;;;;;22.58;18.00;;;15.70;99.90;;;;;;5053888;28;20452;-51
2022/06/05 18:55:30;;;;;;;25.17;18.52;;;15.70;99.90;;;;;;5054243;28;20041;-57
2022/06/05 18:57:57;;;;;;;24.55;18.65;;;15.70;99.90;;;;;;5053265;28;20059;-58
2022/06/05 19:00:25;;;;;;;22.48;18.15;;;15.70;99.90;;;;;;5054229;28;20472;-55
2022/06/05 19:02:52;;;;;;;29.33;20.77;;;15.70;99.90;;;;;;5043371;28;20041;-54
2022/06/05 19:05:18;;;;;;;25.33;19.58;;;15.60;99.90;;;;;;5035099;28;20049;-53
2022/06/05 19:07:45;;;;;;;25.00;19.17;;;15.60;99.90;;;;;;5035183;28;20045;-55
2022/06/05 19:10:12;;;;;;;25.48;19.77;;;15.50;99.90;;;;;;5034133;28;20091;-56
2022/06/05 19:12:41;;;;;;;25.83;19.55;;;15.60;99.90;;;;;;5035763;28;20037;-53
2022/06/05 19:15:07;;;;;;;23.92;19.83;;;15.50;99.90;;;;;;5039588;28;20456;-58
2022/06/05 19:17:36;;;;;;;25.95;19.95;;;15.50;99.90;;;;;;5034553;28;20096;-55
2022/06/05 19:20:03;;;;;;;26.30;20.20;;;15.50;99.90;;;;;;5052147;28;20542;-55
2022/06/05 19:22:32;;;;;;;26.17;20.08;;;15.50;99.90;;;;;;5053579;28;20095;-55
2022/06/05 19:24:58;;;;;;;26.73;19.98;;;15.40;99.90;;;;;;5053182;28;20052;-54
2022/06/05 19:27:25;;;;;;;28.48;20.27;;;15.50;99.90;;;;;;5052214;28;20056;-52
2022/06/05 19:29:52;;;;;;;23.25;19.40;;;15.50;99.90;;;;;;5052760;28;20488;-57
2022/06/05 19:32:19;;;;;;;21.85;18.55;;;15.50;99.90;;;;;;5053683;28;20127;-56
2022/06/05 19:34:45;;;;;;;26.15;20.30;;;15.50;99.90;;;;;;5053466;28;20037;-52
2022/06/05 19:39:58;;;;;;;25.33;19.88;;;15.40;99.90;;;;;;5053305;28;20055;-52
2022/06/05 19:42:24;;;;;;;24.65;21.30;;;15.30;99.90;;;;;;5053204;28;20044;-55
2022/06/05 19:44:59;;;;;;;27.15;20.13;;;15.30;99.90;;;;;;5054131;28;20052;-55
2022/06/05 19:47:29;;;;;;;28.25;21.15;;;15.30;99.90;;;;;;5053661;28;20038;-54
2022/06/05 19:49:57;;;;;;;25.67;21.00;;;15.30;99.90;;;;;;5052389;28;20075;-52
2022/06/05 19:52:23;;;;;;;23.92;19.27;;;15.20;99.90;;;;;;5053030;28;20049;-52
2022/06/05 19:54:50;;;;;;;23.15;19.05;;;15.20;99.90;;;;;;5052238;28;20602;-55
2022/06/05 19:57:17;;;;;;;19.70;14.70;;;15.10;99.90;;;;;;5053196;28;20434;-56
2022/06/05 19:59:44;;;;;;;16.30;14.07;;;15.00;99.90;;;;;;5054474;28;20067;-57
2022/06/05 20:02:10;;;;;;;14.52;11.65;;;15.00;99.90;;;;;;5040155;28;20045;-52
2022/06/05 20:04:38;;;;;;;13.57;10.60;;;14.90;99.90;;;;;;5038570;28;20072;-53
2022/06/05 20:07:04;;;;;;;10.93;8.88;;;14.80;99.90;;;;;;5053003;28;20037;-56
2022/06/05 20:09:33;;;;;;;9.68;8.13;;;14.70;99.90;;;;;;5052250;28;20043;-51
2022/06/05 20:12:02;;;;;;;9.13;7.45;;;14.70;99.90;;;;;;5052893;28;20037;-51
2022/06/05 20:14:29;;;;;;;8.77;6.75;;;14.70;99.90;;;;;;5052129;28;20049;-53
2022/06/05 20:17:09;;;;;;;7.22;5.90;;;14.60;99.90;;;;;;5036583;28;20040;-53
2022/06/05 20:19:36;;;;;;;7.90;5.97;;;14.60;99.90;;;;;;5046050;28;20041;-52
2022/06/05 20:22:04;;;;;;;6.18;5.40;;;14.60;99.90;;;;;;5052356;28;20036;-56
2022/06/05 20:24:31;;;;;;;6.10;4.40;;;14.60;99.90;;;;;;5051989;28;20087;-53
2022/06/05 20:26:59;;;;;;;5.95;3.97;;;14.50;99.90;;;;;;5051345;28;20106;-49
2022/06/05 20:29:25;;;;;;;6.00;3.55;;;14.40;99.90;;;;;;5052573;28;20496;-52
2022/06/05 20:31:52;;;;;;;4.38;3.47;;;14.40;99.90;;;;;;5052258;28;20488;-55
2022/06/05 20:34:25;;;;;;;4.25;3.22;;;14.30;99.90;;;;;;5033408;28;20481;-53
2022/06/05 20:36:55;;;;;;;4.00;2.90;;;14.30;99.90;;;;;;5032123;28;20076;-51
2022/06/05 20:39:22;;;;;;;4.80;2.80;;;14.20;99.90;;;;;;5032958;28;20046;-52
2022/06/05 20:41:49;;;;;;;4.38;2.78;;;14.20;99.90;;;;;;5038705;28;20093;-56
2022/06/05 20:44:16;;;;;;;5.63;2.50;;;14.20;99.90;;;;;;5051710;28;20041;-54
2022/06/05 20:46:42;;;;;;;6.28;2.90;;;14.20;99.90;;;;;;5042879;28;20048;-50
2022/06/05 20:49:09;;;;;;;5.78;2.80;;;14.20;99.90;;;;;;5048495;28;20068;-49
2022/06/05 20:51:36;;;;;;;3.10;2.75;;;14.10;99.90;;;;;;5048694;28;20475;-54
2022/06/05 20:54:03;;;;;;;2.80;2.20;;;14.10;99.90;;;;;;5032996;28;20041;-52
2022/06/05 20:56:30;;;;;;;3.53;2.22;;;14.00;99.90;;;;;;5042936;28;20049;-52
2022/06/05 20:58:57;;;;;;;3.13;2.30;;;14.00;99.90;;;;;;5035301;28;20053;-52
2022/06/05 21:01:24;;;;;;;3.40;2.10;;;14.00;99.90;;;;;;5045753;28;20056;-53
2022/06/05 21:09:22;;;;;;;5.10;2.75;;;13.80;99.90;;;;;;5039449;28;20096;-53
2022/06/05 21:17:20;;;;;;;4.65;2.50;;;13.80;99.90;;;;;;5037362;28;20350;-52
2022/06/05 21:19:46;;;;;;;4.07;2.40;;;13.80;99.90;;;;;;5034934;28;20044;-49
2022/06/05 21:22:13;;;;;;;4.07;2.45;;;13.80;99.90;;;;;;5035310;28;20041;-50
2022/06/05 21:24:40;;;;;;;7.57;2.70;;;13.70;99.90;;;;;;5037200;28;20045;-49
2022/06/05 21:27:07;;;;;;;5.53;2.80;;;13.70;99.90;;;;;;5047455;28;20048;-54